»·PEaware :: JNY60 KLAS-KSNA

JNY60 :: KLAS-KSNA

FLIGHT INFORMATION

Flight Status: Arrived
Operator: Unknown
More flights by this operator :: More flights under this callsign
Pilot: Max W. (2591)
Aircraft: AIRBUS A319
(A319)
More flights by this aircraft type
Origin: KLAS McCarran Intl
United States
Destination: KSNA John Wayne-Orange Co
United States
More flights between these airports :: More routes between these airports
Route: BOACH8 WHIGG FEYLA DSNEE4
File this flight plan on PilotEdge
Remarks:
Altitude:
(Current/Filed)
28,000ft
Speed:
(Current/Filed)
430kts
Departed: 10-Oct-19 02:39 PM
Arrived: 10-Oct-19 03:19 PM
Distance/Time
Traveled:
197nm/0:40
Distance/Time
To Go:
Arrived

Flight Plot

Page will automatically refresh every two minutes.

Flight plan parsing failed; only flown route is shown


Map Options




Map Legend


Flown Route
Filed Route
Departure Airport
Arrival Airport
Navaid (VOR, NDB)
Fix

Horizontal Profiles

Position Reports

Time Latitude Longitude Heading Altitude Ground
Speed
10-Oct-19 14:15 36.092988 -115.163515 23 2120ft 0kts
10-Oct-19 14:15 36.092988 -115.163515 23 2120ft 0kts
10-Oct-19 14:16 36.092988 -115.163515 23 2120ft 0kts
10-Oct-19 14:17 36.092988 -115.163515 23 2120ft 0kts
10-Oct-19 14:18 36.092988 -115.163515 23 2120ft 0kts
10-Oct-19 14:19 36.092988 -115.163515 23 2120ft 0kts
10-Oct-19 14:20 36.092988 -115.163515 23 2120ft 0kts
10-Oct-19 14:21 36.092988 -115.163515 23 2120ft 0kts
10-Oct-19 14:22 36.092988 -115.163515 23 2120ft 0kts
10-Oct-19 14:23 36.092988 -115.163515 23 2120ft 0kts
10-Oct-19 14:24 36.092988 -115.163515 23 2120ft 0kts
10-Oct-19 14:25 36.092988 -115.163515 23 2120ft 0kts
10-Oct-19 14:26 36.092988 -115.163515 23 2120ft 0kts
10-Oct-19 14:27 36.092988 -115.163515 23 2120ft 0kts
10-Oct-19 14:28 36.092988 -115.163515 23 2120ft 0kts
10-Oct-19 14:29 36.092988 -115.163515 23 2120ft 0kts
10-Oct-19 14:30 36.092988 -115.163515 23 2120ft 0kts
10-Oct-19 14:31 36.093133 -115.163133 78 2120ft 3kts
10-Oct-19 14:32 36.089973 -115.164405 204 2120ft 19kts
10-Oct-19 14:33 36.084475 -115.167507 205 2120ft 22kts
10-Oct-19 14:34 36.079670 -115.170252 206 2121ft 6kts
10-Oct-19 14:35 36.078027 -115.170237 100 2121ft 0kts
10-Oct-19 14:36 36.078027 -115.170237 100 2121ft 0kts
10-Oct-19 14:37 36.078027 -115.170235 101 2121ft 0kts
10-Oct-19 14:38 36.080385 -115.167511 24 2121ft 85kts
10-Oct-19 14:39 36.120047 -115.169890 294 5592ft 205kts
10-Oct-19 14:40 36.112171 -115.252538 265 9363ft 269kts
10-Oct-19 14:41 36.053519 -115.316335 200 13173ft 329kts
10-Oct-19 14:42 35.964762 -115.357248 204 16499ft 369kts
10-Oct-19 14:43 35.866323 -115.369336 162 19782ft 396kts
10-Oct-19 14:44 35.759981 -115.326218 164 22803ft 412kts
10-Oct-19 14:45 35.651813 -115.328681 225 25079ft 407kts
10-Oct-19 14:46 35.573131 -115.435741 233 26711ft 433kts
10-Oct-19 14:47 35.491235 -115.545904 232 28028ft 441kts
10-Oct-19 14:48 35.411935 -115.652924 232 28034ft 441kts
10-Oct-19 14:49 35.328430 -115.765479 232 28029ft 441kts
10-Oct-19 14:50 35.245716 -115.876136 232 28008ft 441kts
10-Oct-19 14:51 35.161228 -115.984787 230 27986ft 441kts
10-Oct-19 14:52 35.075663 -116.092327 230 27980ft 441kts
10-Oct-19 14:53 34.990409 -116.199287 230 27982ft 440kts
10-Oct-19 14:54 34.905083 -116.305922 230 27986ft 439kts
10-Oct-19 14:55 34.823709 -116.408661 231 27979ft 439kts
10-Oct-19 14:56 34.739467 -116.515859 231 27970ft 436kts
10-Oct-19 14:57 34.656733 -116.610101 225 27971ft 404kts
10-Oct-19 14:58 34.572950 -116.692460 224 27970ft 405kts
10-Oct-19 14:59 34.487957 -116.778699 229 26249ft 392kts
10-Oct-19 15:00 34.410044 -116.869085 228 23668ft 384kts
10-Oct-19 15:01 34.333392 -116.957785 228 20971ft 377kts
10-Oct-19 15:02 34.256917 -117.040635 215 15815ft 366kts
10-Oct-19 15:03 34.168159 -117.103844 206 12042ft 373kts
10-Oct-19 15:04 34.086466 -117.147999 203 12035ft 303kts
10-Oct-19 15:05 34.011009 -117.188907 207 12028ft 279kts
10-Oct-19 15:06 33.957086 -117.251268 229 10952ft 268kts
10-Oct-19 15:07 33.909375 -117.318486 230 9035ft 255kts
10-Oct-19 15:08 33.865663 -117.380014 230 8040ft 245kts
10-Oct-19 15:09 33.822397 -117.443253 247 8027ft 245kts
10-Oct-19 15:10 33.825993 -117.521432 280 7065ft 236kts
10-Oct-19 15:11 33.833143 -117.599371 272 6041ft 234kts
10-Oct-19 15:12 33.833081 -117.676663 269 5499ft 235kts
10-Oct-19 15:13 33.832953 -117.754264 265 4507ft 221kts
10-Oct-19 15:14 33.793467 -117.794278 205 2541ft 175kts
10-Oct-19 15:15 33.758036 -117.816447 207 1822ft 123kts
10-Oct-19 15:16 33.729465 -117.834762 208 1014ft 116kts
10-Oct-19 15:17 33.701182 -117.852729 202 684ft 113kts
10-Oct-19 15:18 33.675543 -117.867060 208 65ft 28kts
10-Oct-19 15:19 33.672684 -117.867487 193 65ft 25kts

Navigation Log

Ident Type
Flight plan parsing failed, navigation log unavailable